Time;durP1;ratioP1;P1;durP2;ratioP2;P2;SDS_P1;SDS_P2;PMS_P1;PMS_P2;Temp;Humidity;BMP_temperature;BMP_pressure;BME280_temperature;BME280_humidity;BME280_pressure;Samples;Min_cycle;Max_cycle;Signal;HPM_P1;HPM_P2
2021/05/02 00:00:37;;;;;;;4.25;2.95;;;;;;;;;;4969594;28;20045;-61
2021/05/02 00:03:04;;;;;;;3.30;2.60;;;;;;;;;;4995277;28;20546;-60
2021/05/02 00:05:31;;;;;;;4.07;3.03;;;;;;;;;;4996217;28;20121;-61
2021/05/02 00:07:56;;;;;;;3.85;2.83;;;;;;;;;;4977685;28;20061;-61
2021/05/02 00:10:22;;;;;;;4.28;2.70;;;;;;;;;;4996224;28;20101;-60
2021/05/02 00:12:48;;;;;;;4.53;3.20;;;;;;;;;;4994599;28;20035;-60
2021/05/02 00:15:16;;;;;;;2.95;2.58;;;;;;;;;;4995301;28;20094;-61
2021/05/02 00:17:42;;;;;;;3.78;2.90;;;;;;;;;;4996668;28;20047;-61
2021/05/02 00:20:09;;;;;;;3.53;2.88;;;;;;;;;;4985936;28;20098;-61
2021/05/02 00:22:36;;;;;;;3.25;2.63;;;;;;;;;;4995297;28;20121;-61
2021/05/02 00:25:06;;;;;;;3.53;2.85;;;;;;;;;;4986730;28;20070;-60
2021/05/02 00:27:32;;;;;;;3.60;2.72;;;;;;;;;;4994691;28;20065;-61
2021/05/02 00:29:58;;;;;;;4.13;2.80;;;;;;;;;;4996481;28;20089;-61
2021/05/02 00:32:23;;;;;;;3.10;2.63;;;;;;;;;;4995741;28;20049;-61
2021/05/02 00:34:49;;;;;;;4.07;2.90;;;;;;;;;;4994367;28;20069;-60
2021/05/02 00:37:15;;;;;;;4.05;3.08;;;;;;;;;;4978435;28;20149;-60
2021/05/02 00:39:40;;;;;;;4.07;3.15;;;;;;;;;;4998840;28;20030;-60
2021/05/02 00:42:07;;;;;;;3.88;2.92;;;;;;;;;;4997704;28;20039;-60
2021/05/02 00:44:45;;;;;;;3.60;2.75;;;;;;;;;;4995588;28;20545;-60
2021/05/02 00:47:18;;;;;;;3.85;2.90;;;;;;;;;;4995524;28;20082;-60
2021/05/02 00:50:08;;;;;;;4.25;3.15;;;;;;;;;;4993810;28;20090;-60
2021/05/02 00:52:49;;;;;;;3.35;2.78;;;;;;;;;;5012083;28;20245;-60
2021/05/02 00:55:38;;;;;;;3.83;2.72;;;;;;;;;;4997860;28;20418;-60
2021/05/02 00:58:04;;;;;;;3.65;2.90;;;;;;;;;;4993297;28;20586;-59
2021/05/02 01:00:35;;;;;;;4.18;3.10;;;;;;;;;;4978927;28;20034;-60
2021/05/02 01:03:02;;;;;;;4.05;2.90;;;;;;;;;;4994162;28;20117;-59
2021/05/02 01:05:28;;;;;;;4.63;3.22;;;;;;;;;;4994872;28;20034;-60
2021/05/02 01:08:03;;;;;;;4.03;3.10;;;;;;;;;;4995521;28;20057;-59
2021/05/02 01:10:29;;;;;;;4.18;3.00;;;;;;;;;;4995303;28;20046;-60
2021/05/02 01:12:56;;;;;;;3.70;3.00;;;;;;;;;;4963261;28;20117;-60
2021/05/02 01:15:26;;;;;;;4.28;3.50;;;;;;;;;;4996775;28;20118;-60
2021/05/02 01:17:57;;;;;;;3.88;3.17;;;;;;;;;;4995658;28;20060;-60
2021/05/02 01:20:23;;;;;;;4.45;3.28;;;;;;;;;;5010782;28;20093;-60
2021/05/02 01:22:48;;;;;;;3.80;3.33;;;;;;;;;;5001872;28;20478;-60
2021/05/02 01:25:14;;;;;;;4.53;3.33;;;;;;;;;;4984835;28;20040;-60
2021/05/02 01:27:39;;;;;;;4.72;3.45;;;;;;;;;;4997035;28;20034;-60
2021/05/02 01:30:09;;;;;;;4.88;3.67;;;;;;;;;;4996549;28;20042;-60
2021/05/02 01:32:34;;;;;;;5.20;3.80;;;;;;;;;;4996079;28;20038;-60
2021/05/02 01:35:00;;;;;;;4.82;3.90;;;;;;;;;;4995159;28;20034;-60
2021/05/02 01:37:26;;;;;;;5.85;4.30;;;;;;;;;;5001352;28;20062;-59
2021/05/02 01:39:51;;;;;;;4.80;3.50;;;;;;;;;;4996190;28;20050;-59
2021/05/02 01:42:17;;;;;;;4.38;3.55;;;;;;;;;;4997216;28;20027;-60
2021/05/02 01:44:42;;;;;;;5.47;3.70;;;;;;;;;;5002117;28;20046;-60
2021/05/02 01:47:15;;;;;;;5.07;3.72;;;;;;;;;;4996550;28;20038;-60
2021/05/02 01:49:48;;;;;;;5.05;3.88;;;;;;;;;;4995408;28;20113;-59
2021/05/02 01:52:15;;;;;;;4.95;3.58;;;;;;;;;;4994739;28;20117;-60
2021/05/02 01:54:41;;;;;;;4.80;3.42;;;;;;;;;;4994979;28;20022;-60
2021/05/02 01:57:07;;;;;;;4.00;3.53;;;;;;;;;;4992668;28;20054;-60
2021/05/02 01:59:33;;;;;;;4.38;3.90;;;;;;;;;;5000650;28;21022;-60
2021/05/02 02:01:58;;;;;;;4.10;3.40;;;;;;;;;;4999428;28;20042;-60
2021/05/02 02:04:23;;;;;;;3.75;3.15;;;;;;;;;;4994512;28;20475;-59
2021/05/02 02:06:49;;;;;;;4.38;3.35;;;;;;;;;;4984607;28;20096;-60
2021/05/02 02:09:15;;;;;;;4.53;3.90;;;;;;;;;;5000984;28;20038;-60
2021/05/02 02:11:40;;;;;;;4.05;3.50;;;;;;;;;;5000772;28;20030;-60
2021/05/02 02:14:05;;;;;;;4.57;3.90;;;;;;;;;;4980485;28;20057;-60
2021/05/02 02:16:31;;;;;;;4.88;3.80;;;;;;;;;;4995552;28;20038;-60
2021/05/02 02:18:57;;;;;;;4.72;3.80;;;;;;;;;;4995654;28;20089;-60
2021/05/02 02:21:23;;;;;;;4.40;3.80;;;;;;;;;;4995833;28;20082;-60
2021/05/02 02:24:08;;;;;;;5.00;3.83;;;;;;;;;;4992931;28;20038;-60
2021/05/02 02:26:53;;;;;;;4.93;4.10;;;;;;;;;;4978683;28;20066;-59
2021/05/02 02:29:19;;;;;;;5.20;3.97;;;;;;;;;;4993753;28;20048;-60
2021/05/02 02:31:46;;;;;;;4.40;3.90;;;;;;;;;;4984332;28;20610;-59
2021/05/02 02:34:13;;;;;;;5.13;3.83;;;;;;;;;;4985838;28;20486;-60
2021/05/02 02:36:38;;;;;;;5.70;4.10;;;;;;;;;;4995342;28;20042;-59
2021/05/02 02:39:04;;;;;;;4.97;3.97;;;;;;;;;;5000215;28;20039;-60
2021/05/02 02:41:29;;;;;;;5.60;3.92;;;;;;;;;;5000214;28;20411;-60
2021/05/02 02:43:58;;;;;;;5.63;4.13;;;;;;;;;;4984039;28;20038;-59
2021/05/02 02:46:24;;;;;;;5.50;4.00;;;;;;;;;;4983943;28;20031;-60
2021/05/02 02:48:54;;;;;;;5.50;3.90;;;;;;;;;;4993696;28;20447;-59
2021/05/02 02:51:19;;;;;;;5.28;4.20;;;;;;;;;;4994741;28;20042;-60
2021/05/02 02:53:45;;;;;;;4.85;3.95;;;;;;;;;;4993690;28;20034;-60
2021/05/02 02:56:14;;;;;;;5.63;4.15;;;;;;;;;;4999659;28;20030;-59
2021/05/02 02:58:43;;;;;;;6.88;4.13;;;;;;;;;;4999612;28;20541;-60
2021/05/02 03:01:09;;;;;;;5.35;3.90;;;;;;;;;;4993809;28;20112;-59
2021/05/02 03:03:34;;;;;;;4.72;3.97;;;;;;;;;;4967926;28;20038;-59
2021/05/02 03:06:01;;;;;;;5.65;4.35;;;;;;;;;;4982754;28;20475;-59
2021/05/02 03:08:29;;;;;;;6.10;4.47;;;;;;;;;;4982823;28;20027;-60
2021/05/02 03:10:54;;;;;;;5.70;4.15;;;;;;;;;;4995128;28;20054;-59
2021/05/02 03:13:20;;;;;;;5.95;4.70;;;;;;;;;;5000302;28;20045;-60
2021/05/02 03:15:47;;;;;;;5.97;4.72;;;;;;;;;;4990165;28;20035;-60
2021/05/02 03:18:17;;;;;;;5.63;4.70;;;;;;;;;;4998574;28;20041;-60
2021/05/02 03:20:44;;;;;;;5.15;4.40;;;;;;;;;;4997321;28;20026;-60
2021/05/02 03:23:39;;;;;;;5.80;4.07;;;;;;;;;;4986830;28;20066;-60
2021/05/02 03:26:06;;;;;;;6.03;4.15;;;;;;;;;;4993422;28;20046;-60
2021/05/02 03:28:51;;;;;;;5.35;4.22;;;;;;;;;;5003071;28;20061;-59
2021/05/02 03:31:17;;;;;;;6.10;4.53;;;;;;;;;;4998047;28;20038;-60
2021/05/02 03:33:50;;;;;;;6.05;4.07;;;;;;;;;;4996320;28;20042;-60
2021/05/02 03:36:17;;;;;;;5.18;4.22;;;;;;;;;;4997656;28;20407;-60
2021/05/02 03:38:47;;;;;;;5.40;4.00;;;;;;;;;;4994352;28;20039;-60
2021/05/02 03:41:13;;;;;;;5.68;4.20;;;;;;;;;;5003540;28;20041;-60
2021/05/02 03:43:39;;;;;;;5.07;4.10;;;;;;;;;;4970168;28;20108;-60
2021/05/02 03:46:05;;;;;;;5.53;3.95;;;;;;;;;;4998451;28;20092;-60
2021/05/02 03:48:31;;;;;;;4.97;4.15;;;;;;;;;;4996589;28;20022;-60
2021/05/02 03:50:56;;;;;;;5.82;4.30;;;;;;;;;;4995871;28;20038;-60
2021/05/02 03:53:22;;;;;;;4.90;4.03;;;;;;;;;;4997734;28;20042;-60
2021/05/02 03:55:47;;;;;;;5.32;4.00;;;;;;;;;;4998450;28;20185;-60
2021/05/02 03:58:16;;;;;;;5.10;4.03;;;;;;;;;;5001481;28;20046;-60
2021/05/02 04:00:42;;;;;;;5.03;4.00;;;;;;;;;;5002642;28;20066;-60
2021/05/02 04:03:08;;;;;;;4.38;3.80;;;;;;;;;;4996128;28;20030;-60
2021/05/02 04:05:33;;;;;;;5.10;4.10;;;;;;;;;;4997847;28;20369;-61
2021/05/02 04:07:59;;;;;;;4.80;4.07;;;;;;;;;;4983653;28;20491;-60
2021/05/02 04:10:24;;;;;;;5.45;4.25;;;;;;;;;;4998450;28;20550;-60
2021/05/02 04:12:50;;;;;;;4.55;3.88;;;;;;;;;;4998465;28;20038;-60
2021/05/02 04:15:15;;;;;;;4.75;3.65;;;;;;;;;;4996703;28;20130;-60
2021/05/02 04:17:41;;;;;;;5.13;4.20;;;;;;;;;;4994489;28;20046;-60
2021/05/02 04:20:07;;;;;;;4.68;3.75;;;;;;;;;;4997018;28;20411;-60
2021/05/02 04:22:32;;;;;;;5.40;4.53;;;;;;;;;;5000963;28;20039;-60
2021/05/02 04:24:58;;;;;;;5.60;4.35;;;;;;;;;;4997625;28;20459;-60
2021/05/02 04:27:23;;;;;;;6.20;4.95;;;;;;;;;;4996455;28;20023;-60
2021/05/02 04:29:49;;;;;;;4.53;3.80;;;;;;;;;;5002341;28;20555;-60
2021/05/02 04:32:14;;;;;;;5.45;4.13;;;;;;;;;;4996522;28;20061;-60
2021/05/02 04:34:40;;;;;;;3.85;3.40;;;;;;;;;;5001670;28;20090;-60
2021/05/02 04:37:06;;;;;;;5.45;3.53;;;;;;;;;;4999030;28;20332;-60
2021/05/02 04:39:31;;;;;;;4.43;3.67;;;;;;;;;;4997340;28;20034;-60
2021/05/02 04:41:57;;;;;;;4.10;3.53;;;;;;;;;;4994580;28;20715;-60
2021/05/02 04:44:23;;;;;;;4.75;3.58;;;;;;;;;;4995225;28;20026;-61
2021/05/02 04:46:49;;;;;;;4.25;3.63;;;;;;;;;;4995948;28;20041;-61
2021/05/02 04:49:14;;;;;;;5.38;3.80;;;;;;;;;;4995920;28;20522;-61
2021/05/02 04:51:40;;;;;;;4.30;3.63;;;;;;;;;;5011177;28;20034;-61
2021/05/02 04:54:06;;;;;;;5.30;4.25;;;;;;;;;;4997484;28;20038;-61
2021/05/02 04:56:31;;;;;;;4.63;3.65;;;;;;;;;;4996944;28;20164;-62
2021/05/02 04:58:57;;;;;;;4.85;3.78;;;;;;;;;;5002275;28;20045;-61
2021/05/02 05:01:22;;;;;;;5.63;3.45;;;;;;;;;;4996760;28;20553;-62
2021/05/02 05:03:48;;;;;;;4.38;3.55;;;;;;;;;;4996006;28;20034;-61
2021/05/02 05:06:13;;;;;;;4.65;3.42;;;;;;;;;;5012436;28;20497;-61
2021/05/02 05:08:39;;;;;;;4.00;3.22;;;;;;;;;;4995536;28;20034;-61
2021/05/02 05:11:05;;;;;;;3.78;3.13;;;;;;;;;;4993717;28;20604;-62
2021/05/02 05:13:30;;;;;;;4.85;3.50;;;;;;;;;;5002486;28;20041;-61
2021/05/02 05:15:57;;;;;;;3.95;3.17;;;;;;;;;;4996749;28;20030;-62
2021/05/02 05:18:22;;;;;;;3.15;2.78;;;;;;;;;;5000686;28;20093;-62
2021/05/02 05:20:49;;;;;;;3.58;2.90;;;;;;;;;;4996022;28;20046;-62
2021/05/02 05:23:14;;;;;;;3.15;2.70;;;;;;;;;;4996975;28;20026;-62
2021/05/02 05:25:40;;;;;;;3.03;2.72;;;;;;;;;;4996648;28;20487;-62
2021/05/02 05:28:05;;;;;;;3.08;2.65;;;;;;;;;;4993821;28;20039;-62
2021/05/02 05:30:31;;;;;;;4.68;2.90;;;;;;;;;;4995646;28;20050;-61
2021/05/02 05:33:07;;;;;;;3.08;2.70;;;;;;;;;;4996207;28;20038;-61
2021/05/02 05:35:33;;;;;;;3.38;2.83;;;;;;;;;;4997437;28;20079;-62
2021/05/02 05:37:58;;;;;;;4.05;2.95;;;;;;;;;;4995491;28;20049;-62
2021/05/02 05:40:24;;;;;;;4.38;3.28;;;;;;;;;;4995207;28;20039;-62
2021/05/02 05:42:50;;;;;;;4.05;2.92;;;;;;;;;;4985363;28;20046;-60
2021/05/02 05:45:18;;;;;;;3.47;2.78;;;;;;;;;;5000394;28;20045;-61
2021/05/02 05:47:45;;;;;;;4.28;2.78;;;;;;;;;;4995505;28;20506;-61
2021/05/02 05:50:14;;;;;;;4.22;2.67;;;;;;;;;;4996986;28;20484;-61
2021/05/02 05:52:40;;;;;;;2.88;2.58;;;;;;;;;;5011253;28;20125;-61
2021/05/02 05:55:06;;;;;;;2.88;2.58;;;;;;;;;;4996937;28;20049;-61
2021/05/02 05:57:31;;;;;;;2.97;2.50;;;;;;;;;;4995069;28;20042;-61
2021/05/02 05:59:57;;;;;;;3.67;2.45;;;;;;;;;;4995799;28;20030;-61
2021/05/02 06:02:22;;;;;;;3.13;2.10;;;;;;;;;;4995453;28;20487;-61
2021/05/02 06:04:48;;;;;;;4.18;2.55;;;;;;;;;;4994824;28;20049;-62
2021/05/02 06:07:13;;;;;;;3.30;2.53;;;;;;;;;;4994427;28;20039;-61
2021/05/02 06:09:39;;;;;;;3.95;2.83;;;;;;;;;;4996327;28;20431;-61
2021/05/02 06:12:05;;;;;;;4.00;2.65;;;;;;;;;;4994889;28;20038;-61
2021/05/02 06:14:30;;;;;;;3.40;2.38;;;;;;;;;;4996530;28;20041;-61
2021/05/02 06:16:56;;;;;;;2.72;2.15;;;;;;;;;;4992649;28;20038;-61
2021/05/02 06:19:21;;;;;;;3.00;2.10;;;;;;;;;;4994658;28;20038;-61
2021/05/02 06:21:47;;;;;;;3.13;2.30;;;;;;;;;;4994798;28;20660;-61
2021/05/02 06:24:12;;;;;;;3.05;2.50;;;;;;;;;;4992924;28;20042;-61
2021/05/02 06:26:38;;;;;;;2.90;2.22;;;;;;;;;;4996895;28;20031;-61
2021/05/02 06:29:04;;;;;;;3.97;2.20;;;;;;;;;;4994838;28;20126;-61
2021/05/02 06:31:29;;;;;;;2.80;2.15;;;;;;;;;;4995002;28;20038;-61
2021/05/02 06:33:55;;;;;;;2.50;2.20;;;;;;;;;;4994693;28;20034;-61
2021/05/02 06:36:20;;;;;;;3.15;2.15;;;;;;;;;;4995431;28;20030;-61
2021/05/02 06:38:46;;;;;;;2.38;2.08;;;;;;;;;;4977841;28;20039;-62
2021/05/02 06:41:12;;;;;;;2.72;2.20;;;;;;;;;;4993938;28;20609;-61
2021/05/02 06:43:37;;;;;;;3.20;2.00;;;;;;;;;;4994273;28;20537;-61
2021/05/02 06:46:02;;;;;;;4.03;2.30;;;;;;;;;;4992932;28;20027;-61
2021/05/02 06:48:28;;;;;;;2.90;2.05;;;;;;;;;;4993806;28;20778;-61
2021/05/02 06:50:53;;;;;;;3.35;2.30;;;;;;;;;;5003591;28;20038;-61
2021/05/02 06:53:19;;;;;;;3.10;1.95;;;;;;;;;;4997375;28;20038;-61
2021/05/02 06:55:45;;;;;;;3.53;1.98;;;;;;;;;;5012703;28;20027;-61
2021/05/02 06:58:11;;;;;;;2.97;2.17;;;;;;;;;;4997806;28;20665;-61
2021/05/02 07:00:37;;;;;;;3.15;2.10;;;;;;;;;;5003288;28;20153;-61
2021/05/02 07:03:06;;;;;;;3.15;1.73;;;;;;;;;;4999398;28;20027;-62
2021/05/02 07:05:32;;;;;;;2.83;1.90;;;;;;;;;;4997918;28;20045;-61
2021/05/02 07:07:58;;;;;;;2.88;1.67;;;;;;;;;;4995960;28;20058;-61
2021/05/02 07:10:24;;;;;;;2.53;1.85;;;;;;;;;;4998403;28;20101;-61
2021/05/02 07:12:49;;;;;;;2.50;1.83;;;;;;;;;;4998559;28;20042;-61
2021/05/02 07:15:15;;;;;;;2.72;1.80;;;;;;;;;;4998466;28;20034;-61
2021/05/02 07:17:41;;;;;;;2.95;1.83;;;;;;;;;;4997921;28;20079;-62
2021/05/02 07:20:09;;;;;;;3.53;2.00;;;;;;;;;;4998549;28;20042;-61
2021/05/02 07:22:35;;;;;;;2.30;2.00;;;;;;;;;;5004309;28;20049;-61
2021/05/02 07:25:00;;;;;;;2.67;1.70;;;;;;;;;;4996786;28;20059;-61
2021/05/02 07:27:26;;;;;;;3.75;1.88;;;;;;;;;;4996796;28;20035;-62
2021/05/02 07:29:51;;;;;;;2.35;1.63;;;;;;;;;;5003474;28;20094;-61
2021/05/02 07:32:17;;;;;;;2.90;1.52;;;;;;;;;;5000162;28;21027;-61
2021/05/02 07:34:42;;;;;;;2.50;1.70;;;;;;;;;;4998960;28;20034;-61
2021/05/02 07:37:09;;;;;;;2.60;1.48;;;;;;;;;;4995206;28;20031;-61
2021/05/02 07:39:35;;;;;;;3.60;1.38;;;;;;;;;;4987208;28;20034;-61
2021/05/02 07:42:00;;;;;;;3.33;1.50;;;;;;;;;;4997757;28;20035;-61
2021/05/02 07:44:26;;;;;;;2.33;1.48;;;;;;;;;;4998806;28;20440;-61
2021/05/02 07:46:51;;;;;;;1.48;1.17;;;;;;;;;;4997843;28;20049;-62
2021/05/02 07:49:17;;;;;;;1.35;1.10;;;;;;;;;;4997478;28;20030;-62
2021/05/02 07:51:42;;;;;;;1.55;1.00;;;;;;;;;;4997995;28;20046;-62
2021/05/02 07:54:08;;;;;;;2.30;1.10;;;;;;;;;;5002047;28;20073;-62
2021/05/02 07:56:33;;;;;;;2.22;1.33;;;;;;;;;;4998148;28;20411;-62
2021/05/02 07:58:59;;;;;;;1.40;1.23;;;;;;;;;;4997158;28;20034;-62
2021/05/02 08:01:24;;;;;;;2.72;1.50;;;;;;;;;;4996065;28;20027;-60
2021/05/02 08:03:50;;;;;;;1.75;1.20;;;;;;;;;;4996258;28;20870;-60
2021/05/02 08:06:15;;;;;;;2.60;1.40;;;;;;;;;;4997208;28;20030;-61
2021/05/02 08:08:41;;;;;;;2.15;1.20;;;;;;;;;;4997046;28;20057;-61
2021/05/02 08:11:06;;;;;;;2.95;1.35;;;;;;;;;;4995340;28;20671;-61
2021/05/02 08:13:32;;;;;;;2.95;1.40;;;;;;;;;;4996403;28;20035;-61
2021/05/02 08:15:57;;;;;;;2.17;1.27;;;;;;;;;;4996149;28;20039;-61
2021/05/02 08:18:23;;;;;;;2.58;1.25;;;;;;;;;;4996173;28;20054;-61
2021/05/02 08:20:49;;;;;;;3.80;1.40;;;;;;;;;;4995586;28;20113;-61
2021/05/02 08:23:14;;;;;;;3.08;1.35;;;;;;;;;;4996363;28;20024;-62
2021/05/02 08:25:40;;;;;;;2.17;1.20;;;;;;;;;;4997218;28;20041;-61
2021/05/02 08:28:05;;;;;;;2.20;1.20;;;;;;;;;;4997412;28;20399;-61
2021/05/02 08:30:32;;;;;;;2.63;1.15;;;;;;;;;;5001821;28;20062;-61
2021/05/02 08:32:57;;;;;;;1.90;1.20;;;;;;;;;;4979223;28;20026;-61
2021/05/02 08:35:23;;;;;;;2.63;1.25;;;;;;;;;;4997789;28;20035;-62
2021/05/02 08:37:48;;;;;;;2.13;1.40;;;;;;;;;;4985114;28;20051;-62
2021/05/02 08:40:14;;;;;;;2.05;1.38;;;;;;;;;;4996149;28;20548;-62
2021/05/02 08:42:39;;;;;;;2.55;1.38;;;;;;;;;;4992579;28;20137;-62
2021/05/02 08:45:05;;;;;;;2.67;1.40;;;;;;;;;;5001525;28;20039;-61
2021/05/02 08:47:38;;;;;;;2.20;1.40;;;;;;;;;;4994502;28;20081;-60
2021/05/02 08:50:10;;;;;;;1.70;0.95;;;;;;;;;;4994741;28;20060;-59
2021/05/02 08:52:36;;;;;;;2.22;1.20;;;;;;;;;;4998114;28;20040;-60
2021/05/02 08:55:03;;;;;;;1.88;1.40;;;;;;;;;;4995664;28;20167;-59
2021/05/02 08:57:29;;;;;;;2.00;1.23;;;;;;;;;;4995165;28;20047;-59
2021/05/02 08:59:55;;;;;;;1.60;1.10;;;;;;;;;;4979202;28;20030;-60
2021/05/02 09:02:24;;;;;;;1.98;1.20;;;;;;;;;;4996285;28;20035;-60
2021/05/02 09:04:57;;;;;;;2.92;1.45;;;;;;;;;;4994055;28;20385;-60
2021/05/02 09:07:22;;;;;;;1.80;1.23;;;;;;;;;;4994359;28;20035;-60
2021/05/02 09:09:49;;;;;;;2.17;1.20;;;;;;;;;;4984377;28;20038;-60
2021/05/02 09:12:22;;;;;;;2.20;1.30;;;;;;;;;;4978242;28;20058;-58
2021/05/02 09:14:47;;;;;;;1.90;1.02;;;;;;;;;;4994795;28;20034;-60
2021/05/02 09:17:21;;;;;;;1.23;1.10;;;;;;;;;;4995595;28;20038;-60
2021/05/02 09:19:56;;;;;;;1.83;0.90;;;;;;;;;;4996265;28;20110;-60
2021/05/02 09:22:22;;;;;;;1.73;0.95;;;;;;;;;;4996566;28;20038;-60
2021/05/02 09:25:10;;;;;;;1.52;1.17;;;;;;;;;;4996952;28;20138;-60
2021/05/02 09:27:49;;;;;;;2.22;1.10;;;;;;;;;;4994622;28;20042;-61
2021/05/02 09:30:16;;;;;;;1.58;1.00;;;;;;;;;;4994547;28;20288;-60
2021/05/02 09:32:44;;;;;;;1.10;0.90;;;;;;;;;;4977763;28;20026;-60
2021/05/02 09:35:46;;;;;;;0.85;0.85;;;;;;;;;;5000214;28;20538;-61
2021/05/02 09:38:13;;;;;;;1.10;0.90;;;;;;;;;;4993945;28;20967;-61
2021/05/02 09:40:49;;;;;;;1.73;0.80;;;;;;;;;;5009702;28;20042;-60
2021/05/02 09:43:40;;;;;;;1.00;0.70;;;;;;;;;;4995663;28;20035;-61
2021/05/02 09:46:25;;;;;;;1.75;0.70;;;;;;;;;;4996033;28;20039;-61
2021/05/02 09:48:56;;;;;;;1.20;0.80;;;;;;;;;;4995105;28;20475;-60
2021/05/02 09:51:22;;;;;;;0.80;0.60;;;;;;;;;;4993755;28;20038;-61
2021/05/02 09:54:01;;;;;;;1.30;0.75;;;;;;;;;;4994509;28;20046;-61
2021/05/02 09:56:33;;;;;;;2.05;0.70;;;;;;;;;;4995667;28;20041;-61
2021/05/02 09:58:59;;;;;;;0.90;0.70;;;;;;;;;;4979812;28;20075;-63
2021/05/02 10:01:27;;;;;;;1.25;0.73;;;;;;;;;;4967155;28;20118;-61
2021/05/02 10:03:53;;;;;;;1.08;0.80;;;;;;;;;;4996251;28;20038;-61
2021/05/02 10:06:35;;;;;;;0.75;0.70;;;;;;;;;;4993122;28;20043;-61
2021/05/02 10:09:06;;;;;;;1.25;0.68;;;;;;;;;;4977983;28;20093;-61
2021/05/02 10:11:32;;;;;;;1.23;0.77;;;;;;;;;;4994899;28;20031;-64
2021/05/02 10:13:57;;;;;;;1.30;0.73;;;;;;;;;;4992908;28;20039;-62
2021/05/02 10:16:22;;;;;;;1.58;0.80;;;;;;;;;;4984218;28;20034;-60
2021/05/02 10:18:52;;;;;;;0.50;0.47;;;;;;;;;;4994679;28;20090;-62
2021/05/02 10:21:17;;;;;;;0.50;0.50;;;;;;;;;;4995311;28;20071;-62
2021/05/02 10:23:44;;;;;;;1.35;0.68;;;;;;;;;;4976448;28;20030;-62
2021/05/02 10:26:10;;;;;;;0.93;0.68;;;;;;;;;;5000744;28;20042;-61
2021/05/02 10:28:35;;;;;;;1.52;0.65;;;;;;;;;;4983721;28;20034;-62
2021/05/02 10:31:03;;;;;;;1.73;0.70;;;;;;;;;;4984588;28;20445;-61
2021/05/02 10:33:39;;;;;;;1.85;0.63;;;;;;;;;;4999635;28;20117;-61
2021/05/02 10:36:12;;;;;;;0.85;0.60;;;;;;;;;;4996287;28;20035;-61
2021/05/02 10:39:02;;;;;;;0.80;0.70;;;;;;;;;;4994448;28;20046;-60
2021/05/02 10:41:45;;;;;;;1.10;0.50;;;;;;;;;;4994223;28;20035;-63
2021/05/02 10:44:13;;;;;;;1.27;0.60;;;;;;;;;;4993449;28;20561;-62
2021/05/02 10:46:45;;;;;;;1.13;0.60;;;;;;;;;;4995698;28;20158;-61
2021/05/02 10:49:12;;;;;;;0.95;0.50;;;;;;;;;;4993251;28;20121;-61
2021/05/02 10:51:37;;;;;;;1.23;0.65;;;;;;;;;;4994459;28;20041;-61
2021/05/02 10:54:13;;;;;;;0.95;0.50;;;;;;;;;;4999751;28;20050;-61
2021/05/02 10:56:46;;;;;;;1.45;0.50;;;;;;;;;;4995109;28;20035;-58
2021/05/02 10:59:12;;;;;;;1.58;0.80;;;;;;;;;;4976963;28;20051;-59
2021/05/02 11:01:38;;;;;;;0.70;0.60;;;;;;;;;;4996144;28;20039;-59
2021/05/02 11:04:05;;;;;;;1.58;0.60;;;;;;;;;;4998652;28;20034;-60
2021/05/02 11:06:40;;;;;;;0.93;0.55;;;;;;;;;;4995474;28;20088;-59
2021/05/02 11:09:16;;;;;;;0.95;0.63;;;;;;;;;;4993456;28;20063;-58
2021/05/02 11:11:47;;;;;;;2.03;0.90;;;;;;;;;;4994246;28;20097;-59
2021/05/02 11:14:14;;;;;;;1.25;0.70;;;;;;;;;;4995505;28;20044;-59
2021/05/02 11:16:39;;;;;;;1.48;0.60;;;;;;;;;;4992724;28;20355;-59
2021/05/02 11:19:09;;;;;;;0.90;0.70;;;;;;;;;;4998553;28;20053;-59
2021/05/02 11:21:51;;;;;;;0.60;0.57;;;;;;;;;;4992822;28;20039;-59
2021/05/02 11:24:42;;;;;;;1.17;0.65;;;;;;;;;;4994066;28;20038;-59
2021/05/02 11:27:39;;;;;;;0.55;0.50;;;;;;;;;;4993266;28;20035;-59
2021/05/02 11:30:12;;;;;;;1.02;0.70;;;;;;;;;;4991900;28;20049;-59
2021/05/02 11:32:40;;;;;;;1.77;0.70;;;;;;;;;;4994512;28;20038;-59
2021/05/02 11:35:10;;;;;;;0.90;0.52;;;;;;;;;;4993657;28;20490;-59
2021/05/02 11:37:54;;;;;;;1.00;0.70;;;;;;;;;;4978892;28;20039;-59
2021/05/02 11:40:32;;;;;;;1.08;0.60;;;;;;;;;;4997462;28;20046;-59
2021/05/02 11:43:00;;;;;;;0.65;0.60;;;;;;;;;;4997576;28;20034;-59
2021/05/02 11:45:32;;;;;;;1.92;0.80;;;;;;;;;;4997336;28;20035;-59
2021/05/02 11:47:58;;;;;;;;;;;;;;;;;;4998611;28;20031;-59
2021/05/02 11:50:24;;;;;;;1.90;0.70;;;;;;;;;;4997716;28;20793;-59
2021/05/02 11:52:53;;;;;;;0.95;0.60;;;;;;;;;;4997703;28;20538;-59
2021/05/02 11:55:33;;;;;;;1.88;0.70;;;;;;;;;;4995993;28;20042;-59
2021/05/02 11:58:05;;;;;;;1.20;0.90;;;;;;;;;;4996979;28;20042;-59
2021/05/02 12:00:44;;;;;;;;;;;;;;;;;;4997659;28;20038;-59
2021/05/02 12:03:17;;;;;;;1.05;0.95;;;;;;;;;;5001736;28;19921;-59
2021/05/02 12:06:12;;;;;;;1.13;0.68;;;;;;;;;;4997899;28;20050;-59
2021/05/02 12:08:37;;;;;;;2.05;0.80;;;;;;;;;;5002341;28;20039;-59
2021/05/02 12:11:06;;;;;;;0.85;0.68;;;;;;;;;;4996435;28;20419;-59
2021/05/02 12:13:49;;;;;;;1.65;0.80;;;;;;;;;;4997976;28;20419;-59
2021/05/02 12:16:18;;;;;;;0.85;0.63;;;;;;;;;;4981215;28;21068;-60
2021/05/02 12:19:02;;;;;;;1.23;0.60;;;;;;;;;;4995360;28;20053;-59
2021/05/02 12:21:32;;;;;;;1.23;0.73;;;;;;;;;;4997251;28;20571;-60
2021/05/02 12:24:19;;;;;;;1.10;0.50;;;;;;;;;;4996844;28;20174;-60
2021/05/02 12:26:45;;;;;;;0.73;0.60;;;;;;;;;;4996219;28;20034;-60
2021/05/02 12:29:18;;;;;;;1.13;0.70;;;;;;;;;;4996246;28;20157;-60
2021/05/02 12:32:10;;;;;;;1.30;0.75;;;;;;;;;;4979105;28;20043;-60
2021/05/02 12:34:37;;;;;;;1.70;0.73;;;;;;;;;;4997212;28;20072;-60
2021/05/02 12:37:12;;;;;;;1.20;0.77;;;;;;;;;;4995978;28;20039;-59
2021/05/02 12:39:38;;;;;;;1.88;0.80;;;;;;;;;;4980535;28;20054;-60
2021/05/02 12:42:04;;;;;;;1.00;0.70;;;;;;;;;;4995721;28;20030;-59
2021/05/02 12:44:30;;;;;;;1.23;0.73;;;;;;;;;;5001708;28;20038;-59
2021/05/02 12:46:57;;;;;;;1.40;0.80;;;;;;;;;;4960575;28;20897;-59
2021/05/02 12:49:24;;;;;;;1.42;0.52;;;;;;;;;;4979100;28;20034;-59
2021/05/02 12:51:53;;;;;;;1.98;0.70;;;;;;;;;;4994939;28;20039;-59
2021/05/02 12:54:39;;;;;;;1.38;0.63;;;;;;;;;;5002291;28;21253;-59
2021/05/02 12:57:15;;;;;;;1.63;0.65;;;;;;;;;;4995247;28;20069;-59
2021/05/02 12:59:56;;;;;;;1.23;0.70;;;;;;;;;;4995219;28;20155;-60
2021/05/02 13:02:23;;;;;;;1.47;0.90;;;;;;;;;;4979626;28;20054;-61
2021/05/02 13:04:50;;;;;;;1.13;0.90;;;;;;;;;;5001269;28;20061;-60
2021/05/02 13:07:31;;;;;;;2.78;0.70;;;;;;;;;;4994772;28;20042;-61
2021/05/02 13:10:00;;;;;;;0.90;0.60;;;;;;;;;;4984851;28;20042;-61
2021/05/02 13:12:27;;;;;;;1.50;0.63;;;;;;;;;;4995057;28;20090;-61
2021/05/02 13:15:11;;;;;;;1.73;0.68;;;;;;;;;;4978339;28;20121;-58
2021/05/02 13:17:37;;;;;;;1.33;0.57;;;;;;;;;;4995987;28;20133;-58
2021/05/02 13:20:03;;;;;;;0.98;0.70;;;;;;;;;;4993106;28;20039;-58
2021/05/02 13:22:29;;;;;;;0.85;0.50;;;;;;;;;;4992838;28;20046;-58
2021/05/02 13:25:04;;;;;;;0.75;0.60;;;;;;;;;;4994639;28;20038;-58
2021/05/02 13:27:43;;;;;;;1.23;0.55;;;;;;;;;;4995790;28;20189;-58
2021/05/02 13:30:13;;;;;;;1.45;0.60;;;;;;;;;;4990511;28;20110;-58
2021/05/02 13:33:07;;;;;;;0.63;0.50;;;;;;;;;;4995120;28;20112;-58
2021/05/02 13:35:40;;;;;;;0.90;0.43;;;;;;;;;;5000926;28;20042;-58
2021/05/02 13:38:13;;;;;;;0.82;0.50;;;;;;;;;;4995078;28;20505;-58
2021/05/02 13:40:40;;;;;;;1.13;0.50;;;;;;;;;;4982480;28;20039;-58
2021/05/02 13:43:05;;;;;;;0.57;0.50;;;;;;;;;;4994642;28;20088;-58
2021/05/02 13:45:31;;;;;;;0.80;0.50;;;;;;;;;;5001698;28;20545;-58
2021/05/02 13:47:56;;;;;;;0.73;0.50;;;;;;;;;;4984286;28;20733;-58
2021/05/02 13:50:22;;;;;;;0.70;0.50;;;;;;;;;;4995721;28;20073;-58
2021/05/02 13:52:49;;;;;;;0.60;0.60;;;;;;;;;;4994837;28;20442;-58
2021/05/02 13:55:15;;;;;;;0.73;0.50;;;;;;;;;;4993953;28;20041;-58
2021/05/02 13:57:41;;;;;;;0.93;0.55;;;;;;;;;;4994254;28;20049;-58
2021/05/02 14:00:13;;;;;;;0.85;0.50;;;;;;;;;;4994870;28;20039;-58
2021/05/02 14:02:39;;;;;;;2.87;0.80;;;;;;;;;;4996219;28;20031;-58
2021/05/02 14:05:05;;;;;;;0.75;0.50;;;;;;;;;;5001721;28;20266;-58
2021/05/02 14:07:31;;;;;;;1.30;0.65;;;;;;;;;;4994688;28;20038;-58
2021/05/02 14:09:56;;;;;;;0.50;0.50;;;;;;;;;;4995489;28;20035;-58
2021/05/02 14:12:23;;;;;;;1.42;0.63;;;;;;;;;;4993981;28;20038;-58
2021/05/02 14:14:49;;;;;;;0.68;0.40;;;;;;;;;;4981520;28;20085;-58
2021/05/02 14:17:14;;;;;;;0.82;0.50;;;;;;;;;;4993860;28;20537;-58
2021/05/02 14:19:40;;;;;;;2.22;0.60;;;;;;;;;;4994098;28;20038;-58
2021/05/02 14:22:06;;;;;;;1.33;0.60;;;;;;;;;;4994144;28;20094;-59
2021/05/02 14:24:33;;;;;;;0.60;0.50;;;;;;;;;;4995099;28;20162;-59
2021/05/02 14:26:59;;;;;;;0.50;0.40;;;;;;;;;;4993335;28;20058;-59
2021/05/02 14:29:24;;;;;;;0.57;0.43;;;;;;;;;;4993592;28;20439;-59
2021/05/02 14:31:50;;;;;;;0.68;0.50;;;;;;;;;;4994123;28;20042;-59
2021/05/02 14:34:16;;;;;;;0.60;0.50;;;;;;;;;;4995784;28;20049;-59
2021/05/02 14:36:58;;;;;;;1.85;0.70;;;;;;;;;;4976915;28;20023;-58
2021/05/02 14:39:25;;;;;;;0.40;0.40;;;;;;;;;;4994376;28;20129;-59
2021/05/02 14:41:51;;;;;;;1.42;0.60;;;;;;;;;;4986614;28;20588;-59
2021/05/02 14:44:17;;;;;;;0.90;0.50;;;;;;;;;;4995092;28;20031;-59
2021/05/02 14:46:42;;;;;;;1.17;0.50;;;;;;;;;;4994790;28;20118;-59
2021/05/02 14:49:09;;;;;;;0.63;0.52;;;;;;;;;;4999297;28;20517;-60
2021/05/02 14:51:35;;;;;;;0.40;0.40;;;;;;;;;;4995435;28;20046;-59